Time;durP1;ratioP1;P1;durP2;ratioP2;P2;SDS_P1;SDS_P2;PMS_P1;PMS_P2;Temp;Humidity;BMP_temperature;BMP_pressure;BME280_temperature;BME280_humidity;BME280_pressure;Samples;Min_cycle;Max_cycle;Signal;HPM_P1;HPM_P2
2022/04/06 00:00:49;;;;;;;7.00;3.70;;;;;;;3.66;77.08;97759.79;104909;1271;75556;-28
2022/04/06 00:03:17;;;;;;;3.90;2.80;;;;;;;3.45;77.64;97763.02;104963;1271;76767;-28
2022/04/06 00:05:45;;;;;;;3.30;2.70;;;;;;;3.26;78.08;97753.78;104795;1271;74451;-28
2022/04/06 00:08:12;;;;;;;4.90;3.00;;;;;;;3.13;78.80;97752.60;104732;1272;61323;-28
2022/04/06 00:11:00;;;;;;;4.50;3.30;;;;;;;3.65;77.99;97753.80;105004;1271;62186;-28
2022/04/06 00:13:29;;;;;;;4.80;2.80;;;;;;;3.95;76.98;97751.26;105108;1274;76594;-29
2022/04/06 00:15:58;;;;;;;6.80;3.80;;;;;;;3.82;76.55;97758.96;105010;1274;75980;-28
2022/04/06 00:18:25;;;;;;;3.70;3.00;;;;;;;3.56;77.15;97764.95;104836;1274;74274;-28
2022/04/06 00:20:53;;;;;;;4.80;3.20;;;;;;;3.32;77.70;97764.98;105009;1274;61083;-29
2022/04/06 00:23:41;;;;;;;5.20;3.10;;;;;;;3.04;78.49;97762.67;104958;1274;61921;-28
2022/04/06 00:26:09;;;;;;;5.80;3.00;;;;;;;3.05;79.21;97762.22;105054;1274;75330;-28
2022/04/06 00:28:37;;;;;;;5.60;3.10;;;;;;;3.63;78.11;97759.30;105127;1271;75772;-28
2022/04/06 00:31:05;;;;;;;6.60;3.40;;;;;;;3.87;76.90;97755.83;104743;1274;73420;-28
2022/04/06 00:33:35;;;;;;;5.60;3.50;;;;;;;3.70;76.84;97752.80;105052;1274;62008;-28
2022/04/06 00:36:04;;;;;;;4.40;3.30;;;;;;;3.33;78.16;97752.23;104833;1274;61995;-28
2022/04/06 00:38:32;;;;;;;3.90;2.80;;;;;;;2.99;79.52;97751.34;104586;1275;75115;-29
2022/04/06 00:41:00;;;;;;;4.20;2.90;;;;;;;2.73;80.82;97749.05;104752;1274;74939;-29
2022/04/06 00:43:29;;;;;;;5.20;2.90;;;;;;;2.97;80.42;97755.41;104840;1274;73278;-28
2022/04/06 00:45:57;;;;;;;4.30;3.20;;;;;;;3.49;78.50;97763.89;104752;1274;61135;-28
2022/04/06 00:48:25;;;;;;;4.70;2.90;;;;;;;3.56;77.65;97766.66;104726;1276;61913;-27
2022/04/06 00:50:53;;;;;;;4.30;3.30;;;;;;;3.43;77.64;97768.85;105142;1274;75336;-28
2022/04/06 00:53:23;;;;;;;3.70;3.00;;;;;;;3.20;78.08;97772.66;104943;1274;75978;-28
2022/04/06 00:55:51;;;;;;;6.50;3.90;;;;;;;2.95;78.78;97770.64;104976;1274;74441;-27
2022/04/06 00:58:19;;;;;;;3.70;2.60;;;;;;;2.75;79.91;97766.02;104855;1274;61613;-28
2022/04/06 01:00:48;;;;;;;8.20;3.20;;;;;;;3.28;79.31;97773.98;104940;1274;61177;-27
2022/04/06 01:03:16;;;;;;;4.70;3.50;;;;;;;3.80;77.55;97768.38;104822;1274;74516;-27
2022/04/06 01:05:44;;;;;;;4.30;3.30;;;;;;;3.87;76.98;97770.80;104811;1274;75971;-27
2022/04/06 01:08:13;;;;;;;4.20;3.10;;;;;;;3.72;77.07;97766.35;104793;1272;73447;-27
2022/04/06 01:10:40;;;;;;;6.40;4.20;;;;;;;3.46;77.70;97767.70;104897;1274;61124;-28
2022/04/06 01:13:08;;;;;;;6.30;3.90;;;;;;;3.26;78.36;97761.47;104768;1274;61868;-29
2022/04/06 01:15:36;;;;;;;4.80;2.80;;;;;;;3.09;79.42;97763.66;104916;1274;75355;-27
2022/04/06 01:18:05;;;;;;;6.30;4.00;;;;;;;3.58;78.71;97766.85;105061;1274;77986;-27
2022/04/06 01:20:33;;;;;;;3.50;3.00;;;;;;;4.04;76.98;97772.45;105086;1274;74650;-27
2022/04/06 01:23:19;;;;;;;4.60;3.60;;;;;;;4.00;76.42;97776.69;105055;1274;61118;-27
2022/04/06 01:25:49;;;;;;;4.40;3.50;;;;;;;3.82;76.75;97770.96;105099;1274;62054;-27
2022/04/06 01:28:17;;;;;;;6.00;4.30;;;;;;;3.61;77.10;97777.14;104797;1274;75948;-27
2022/04/06 01:30:46;;;;;;;5.80;4.30;;;;;;;3.38;77.83;97771.40;105115;1274;76025;-27
2022/04/06 01:33:14;;;;;;;3.20;2.60;;;;;;;3.22;78.37;97770.14;104848;1274;74457;-27
2022/04/06 01:35:42;;;;;;;4.40;3.40;;;;;;;3.66;77.99;97774.20;105051;1274;61273;-27
2022/04/06 01:38:12;;;;;;;4.60;3.40;;;;;;;4.20;76.55;97778.27;105070;1274;61061;-27
2022/04/06 01:40:40;;;;;;;5.80;3.30;;;;;;;4.26;75.78;97782.80;105002;1274;75348;-27
2022/04/06 01:43:08;;;;;;;5.80;3.50;;;;;;;4.06;75.92;97781.01;104796;1272;76959;-29
2022/04/06 01:45:36;;;;;;;5.90;4.10;;;;;;;3.68;76.78;97775.89;104802;1274;74033;-28
2022/04/06 01:48:04;;;;;;;4.80;3.30;;;;;;;3.33;78.15;97772.42;104928;1274;61165;-29
2022/04/06 01:53:18;;;;;;;4.00;3.20;;;;;;;3.15;79.61;97757.59;104808;1274;75569;-29
2022/04/06 01:55:47;;;;;;;3.70;3.00;;;;;;;3.54;77.92;97761.70;104725;1274;75986;-29
2022/04/06 01:58:15;;;;;;;5.50;3.70;;;;;;;3.48;77.67;97759.85;104947;1274;74482;-29
2022/04/06 02:00:45;;;;;;;4.90;3.60;;;;;;;3.24;78.63;97746.66;104901;1274;61972;-29
2022/04/06 02:03:17;;;;;;;4.80;4.00;;;;;;;3.04;79.30;97729.05;105043;1274;62927;-29
2022/04/06 02:05:46;;;;;;;4.80;3.20;;;;;;;2.83;80.26;97727.42;104814;1271;75414;-29
2022/04/06 02:08:14;;;;;;;5.10;3.50;;;;;;;3.12;79.66;97729.70;104807;1274;75932;-29
2022/04/06 02:10:42;;;;;;;5.10;3.80;;;;;;;3.35;78.40;97730.44;104768;1272;74389;-28
2022/04/06 02:13:11;;;;;;;4.50;3.40;;;;;;;3.28;78.51;97726.98;104753;1272;61138;-29
2022/04/06 02:15:40;;;;;;;4.50;3.60;;;;;;;3.06;79.43;97727.01;104654;1274;61187;-29
2022/04/06 02:18:08;;;;;;;4.50;3.80;;;;;;;2.97;79.48;97738.29;104951;1274;75428;-29
2022/04/06 02:20:36;;;;;;;4.20;2.80;;;;;;;2.75;80.39;97734.71;104742;1274;75958;-28
2022/04/06 02:23:04;;;;;;;4.10;3.50;;;;;;;3.08;79.93;97737.54;104790;1274;74430;-28
2022/04/06 02:25:32;;;;;;;4.90;3.20;;;;;;;3.37;78.34;97732.88;104798;1274;61071;-28
2022/04/06 02:28:00;;;;;;;4.60;4.10;;;;;;;3.24;78.71;97730.08;104751;1271;62905;-28
2022/04/06 02:30:28;;;;;;;5.20;3.70;;;;;;;3.00;79.45;97741.30;104608;1274;75632;-28
2022/04/06 02:32:57;;;;;;;5.20;3.50;;;;;;;2.93;79.41;97746.98;104796;1271;75934;-28
2022/04/06 02:35:25;;;;;;;4.40;3.10;;;;;;;2.78;79.98;97737.75;104779;1271;74409;-27
2022/04/06 02:37:54;;;;;;;4.90;3.10;;;;;;;3.00;80.23;97727.61;104637;1274;61100;-27
2022/04/06 02:40:22;;;;;;;4.30;3.00;;;;;;;3.21;79.23;97721.13;104631;1274;61217;-27
2022/04/06 02:42:50;;;;;;;4.60;3.20;;;;;;;3.11;79.52;97712.44;104748;1274;74462;-27
2022/04/06 02:45:18;;;;;;;3.50;2.90;;;;;;;2.96;80.12;97710.24;104784;1271;76034;-27
2022/04/06 02:47:46;;;;;;;3.60;2.60;;;;;;;2.78;80.72;97719.08;104804;1271;74406;-27
2022/04/06 02:50:15;;;;;;;5.30;3.40;;;;;;;2.87;80.66;97724.58;104981;1274;61631;-27
2022/04/06 02:52:42;;;;;;;3.30;2.40;;;;;;;3.39;78.84;97724.14;104882;1274;61127;-27
2022/04/06 02:55:12;;;;;;;5.00;3.90;;;;;;;3.33;78.81;97725.41;104835;1271;75437;-27
2022/04/06 02:57:42;;;;;;;5.00;3.80;;;;;;;3.41;78.17;97725.73;104859;1272;75890;-27
2022/04/06 03:00:10;;;;;;;5.10;3.00;;;;;;;3.26;78.01;97733.35;104738;1274;74825;-27
2022/04/06 03:02:43;;;;;;;3.40;2.10;;;;;;;2.77;80.51;97733.83;104643;1274;61131;-28
2022/04/06 03:05:13;;;;;;;4.20;3.00;;;;;;;3.01;80.40;97735.59;104746;1274;61134;-27
2022/04/06 03:07:40;;;;;;;2.90;2.40;;;;;;;3.39;78.83;97732.55;104723;1274;75518;-27
2022/04/06 03:10:09;;;;;;;4.40;3.10;;;;;;;3.32;78.62;97731.31;104789;1272;76139;-27
2022/04/06 03:12:56;;;;;;;4.50;2.70;;;;;;;3.17;79.24;97733.09;104693;1274;74853;-27
2022/04/06 03:15:29;;;;;;;3.10;2.50;;;;;;;3.03;79.85;97733.10;104777;1271;62792;-27
2022/04/06 03:28:40;;;;;;;3.20;2.40;;;;;;;3.00;79.61;97737.88;104963;1274;75596;-27
2022/04/06 03:31:08;;;;;;;5.60;3.10;;;;;;;2.75;80.52;97737.30;104868;1271;74171;-27
2022/04/06 03:33:37;;;;;;;3.70;2.30;;;;;;;2.96;80.47;97738.37;104688;1274;61759;-27
2022/04/06 03:36:05;;;;;;;5.30;3.30;;;;;;;3.37;78.96;97741.09;104783;1271;61163;-27
2022/04/06 03:38:32;;;;;;;4.30;2.90;;;;;;;3.45;78.64;97737.26;104918;1271;76049;-27
2022/04/06 03:41:00;;;;;;;4.50;2.70;;;;;;;3.37;78.85;97737.02;105055;1269;75887;-27
2022/04/06 03:43:29;;;;;;;5.20;3.50;;;;;;;3.25;79.16;97734.40;104887;1274;74424;-27
2022/04/06 03:45:58;;;;;;;4.30;2.30;;;;;;;3.12;79.58;97726.74;104929;1274;61248;-27
2022/04/06 03:48:25;;;;;;;4.40;3.10;;;;;;;3.03;80.67;97726.18;104938;1269;61167;-27
2022/04/06 03:50:55;;;;;;;4.20;3.00;;;;;;;3.66;78.99;97732.85;104873;1271;75536;-27
2022/04/06 03:53:24;;;;;;;4.40;2.90;;;;;;;3.72;78.05;97724.48;104661;1271;75652;-27
2022/04/06 03:55:54;;;;;;;3.00;2.40;;;;;;;3.51;79.10;97719.17;104935;1271;74345;-27
2022/04/06 03:58:21;;;;;;;3.70;2.50;;;;;;;3.51;79.13;97730.16;104834;1271;61087;-27
2022/04/06 04:00:51;;;;;;;4.10;2.70;;;;;;;3.44;79.78;97729.58;104858;1271;62083;-28
2022/04/06 04:03:19;;;;;;;2.70;2.00;;;;;;;3.88;78.97;97722.05;104754;1271;74585;-27
2022/04/06 04:05:53;;;;;;;3.70;2.40;;;;;;;4.24;77.39;97727.33;104633;1274;75979;-28
2022/04/06 04:08:22;;;;;;;3.90;2.10;;;;;;;4.10;77.47;97734.70;104626;1272;74409;-27
2022/04/06 04:10:51;;;;;;;3.90;2.70;;;;;;;3.98;77.97;97746.64;105022;1274;61026;-27
2022/04/06 04:13:19;;;;;;;4.60;1.50;;;;;;;3.79;78.63;97748.70;104776;1271;61127;-28
2022/04/06 04:15:47;;;;;;;2.90;2.40;;;;;;;4.00;78.60;97746.10;105039;1271;75437;-27
2022/04/06 04:18:16;;;;;;;3.20;2.30;;;;;;;4.42;76.97;97747.08;105163;1271;75934;-27
2022/04/06 04:20:45;;;;;;;2.40;2.00;;;;;;;4.42;76.63;97750.19;105049;1270;74247;-27
2022/04/06 04:23:13;;;;;;;3.50;2.10;;;;;;;4.28;77.09;97751.02;104794;1271;61306;-27
2022/04/06 04:25:41;;;;;;;3.80;2.50;;;;;;;4.12;77.51;97756.02;104748;1274;61110;-27
2022/04/06 04:28:10;;;;;;;4.50;2.60;;;;;;;4.12;78.26;97759.67;104782;1274;75396;-27
2022/04/06 04:30:38;;;;;;;3.60;2.50;;;;;;;4.59;76.85;97766.05;105084;1271;75844;-27
2022/04/06 04:33:06;;;;;;;3.30;2.20;;;;;;;4.74;76.11;97767.68;105167;1271;74265;-28
2022/04/06 04:35:34;;;;;;;3.30;2.60;;;;;;;4.59;76.11;97763.33;105094;1274;61887;-28
2022/04/06 04:38:02;;;;;;;6.30;2.80;;;;;;;4.31;77.24;97768.52;104812;1274;61162;-27
2022/04/06 04:40:30;;;;;;;1.90;1.50;;;;;;;4.23;77.55;97768.46;104701;1274;75599;-28
2022/04/06 04:42:59;;;;;;;3.10;2.30;;;;;;;4.22;78.32;97767.45;104725;1274;75827;-27
2022/04/06 04:45:31;;;;;;;;;;;;;;;4.75;76.56;97767.06;104697;1272;74108;-27
2022/04/06 04:47:59;;;;;;;2.10;1.60;;;;;;;4.75;75.86;97761.22;104831;1271;61946;-27
2022/04/06 04:50:27;;;;;;;4.40;3.20;;;;;;;4.56;76.44;97760.85;104778;1271;61137;-27
2022/04/06 04:52:55;;;;;;;5.40;3.10;;;;;;;4.40;77.03;97755.66;104711;1274;75449;-28
2022/04/06 04:55:23;;;;;;;5.30;2.20;;;;;;;4.19;77.68;97753.24;104721;1274;75196;-27
2022/04/06 04:57:54;;;;;;;4.80;2.70;;;;;;;4.38;77.54;97758.36;104938;1271;74865;-27
2022/04/06 05:00:22;;;;;;;5.70;3.60;;;;;;;4.66;76.20;97763.27;104883;1271;61953;-27
2022/04/06 05:02:57;;;;;;;4.10;2.80;;;;;;;4.79;75.62;97757.13;104783;1271;61957;-27
2022/04/06 05:05:25;;;;;;;8.10;3.90;;;;;;;4.71;75.72;97753.41;104703;1271;75552;-27
2022/04/06 05:07:54;;;;;;;5.60;4.00;;;;;;;4.56;75.77;97752.17;104994;1271;76049;-27
2022/04/06 05:10:41;;;;;;;3.40;2.70;;;;;;;4.41;76.60;97755.39;104890;1274;74399;-27
2022/04/06 05:13:29;;;;;;;5.10;3.50;;;;;;;4.84;75.58;97765.66;105122;1271;62265;-28
2022/04/06 05:16:17;;;;;;;6.10;3.50;;;;;;;5.17;74.23;97766.67;105114;1271;61956;-27
2022/04/06 05:18:45;;;;;;;5.10;4.10;;;;;;;5.03;74.15;97771.92;104978;1271;75886;-27
2022/04/06 05:21:28;;;;;;;3.20;2.70;;;;;;;4.98;74.38;97763.05;104790;1271;76033;-27
2022/04/06 05:23:59;;;;;;;4.40;3.40;;;;;;;4.85;74.89;97769.19;105122;1271;74386;-28
2022/04/06 05:26:27;;;;;;;5.30;3.90;;;;;;;4.94;75.10;97772.81;105148;1274;61866;-28
2022/04/06 05:28:57;;;;;;;6.80;4.00;;;;;;;5.48;73.24;97764.61;105122;1274;61780;-28
2022/04/06 05:31:25;;;;;;;5.50;2.80;;;;;;;5.52;72.71;97768.39;105094;1274;75496;-28
2022/04/06 05:33:53;;;;;;;5.00;3.70;;;;;;;5.43;72.59;97769.66;104805;1274;75439;-28
2022/04/06 05:36:24;;;;;;;4.40;3.10;;;;;;;5.33;73.22;97764.60;104825;1274;74302;-28
2022/04/06 05:38:54;;;;;;;3.10;2.70;;;;;;;5.26;73.00;97764.42;104801;1274;61957;-28
2022/04/06 05:41:21;;;;;;;4.40;1.90;;;;;;;5.28;73.00;97763.31;104922;1271;61144;-28
2022/04/06 05:43:50;;;;;;;4.00;2.80;;;;;;;5.60;72.10;97760.16;104951;1271;75375;-28
2022/04/06 05:46:18;;;;;;;4.00;2.10;;;;;;;5.80;70.96;97755.31;104759;1274;76103;-26
2022/04/06 05:48:46;;;;;;;4.20;3.70;;;;;;;5.80;70.94;97754.82;104905;1271;74351;-26
2022/04/06 05:51:15;;;;;;;4.80;3.50;;;;;;;5.89;70.11;97744.02;104956;1271;62223;-26
2022/04/06 05:53:43;;;;;;;5.70;3.20;;;;;;;5.88;70.41;97746.71;104905;1271;61167;-26
2022/04/06 05:56:11;;;;;;;4.70;2.90;;;;;;;6.03;70.30;97748.27;104932;1271;75399;-26
2022/04/06 05:58:41;;;;;;;7.10;2.50;;;;;;;6.10;70.17;97758.04;104751;1271;75987;-26
2022/04/06 06:01:09;;;;;;;3.80;2.90;;;;;;;6.35;69.38;97754.77;104827;1271;74149;-26
2022/04/06 06:03:37;;;;;;;3.80;2.60;;;;;;;6.69;67.68;97761.20;104730;1271;62039;-26
2022/04/06 06:06:05;;;;;;;5.10;3.00;;;;;;;6.67;67.64;97762.89;105039;1271;61127;-26
2022/04/06 06:08:33;;;;;;;4.20;2.60;;;;;;;6.69;67.67;97766.73;105181;1271;75345;-26
2022/04/06 06:11:01;;;;;;;3.00;2.10;;;;;;;6.65;67.55;97766.50;104918;1271;75323;-26
2022/04/06 06:13:30;;;;;;;4.00;2.90;;;;;;;6.83;67.19;97765.16;104782;1271;74520;-26
2022/04/06 06:16:00;;;;;;;3.90;2.90;;;;;;;6.91;66.95;97771.06;104903;1271;61012;-26
2022/04/06 06:18:28;;;;;;;3.50;2.90;;;;;;;6.89;66.55;97778.14;104954;1271;61133;-26
2022/04/06 06:20:57;;;;;;;4.70;3.30;;;;;;;6.86;66.34;97772.52;104911;1271;75349;-26
2022/04/06 06:23:25;;;;;;;3.00;2.30;;;;;;;6.86;66.51;97777.21;104755;1274;75981;-27
2022/04/06 06:25:53;;;;;;;3.80;2.80;;;;;;;6.83;66.81;97783.77;104986;1271;73382;-24
2022/04/06 06:28:21;;;;;;;3.10;2.50;;;;;;;7.00;67.02;97788.22;105021;1271;61756;-27
2022/04/06 06:30:49;;;;;;;5.30;2.60;;;;;;;7.55;65.05;97777.44;105068;1271;61173;-27
2022/04/06 06:33:17;;;;;;;2.20;2.00;;;;;;;7.80;64.38;97785.20;104767;1274;75568;-29
2022/04/06 06:35:50;;;;;;;2.90;2.50;;;;;;;7.81;63.69;97778.20;104761;1271;74350;-26
2022/04/06 06:38:18;;;;;;;2.50;1.80;;;;;;;7.77;64.53;97786.64;104986;1271;74767;-26
2022/04/06 06:40:48;;;;;;;2.70;2.30;;;;;;;7.80;64.10;97775.48;104959;1271;61152;-26
2022/04/06 06:43:17;;;;;;;3.40;2.40;;;;;;;7.71;63.75;97783.56;104942;1271;61807;-26
2022/04/06 06:45:46;;;;;;;2.70;2.10;;;;;;;7.59;63.53;97781.14;104976;1271;75523;-27
2022/04/06 06:48:14;;;;;;;4.40;2.50;;;;;;;7.50;64.48;97789.20;104980;1271;76036;-28
2022/04/06 06:50:42;;;;;;;3.50;2.80;;;;;;;7.45;64.24;97787.04;105009;1269;74391;-28
2022/04/06 06:53:09;;;;;;;3.50;2.60;;;;;;;7.41;64.95;97796.52;105021;1271;61180;-28
2022/04/06 06:55:37;;;;;;;3.20;2.20;;;;;;;7.47;65.41;97796.74;104978;1270;61022;-26
2022/04/06 06:58:05;;;;;;;6.40;2.70;;;;;;;7.58;64.77;97787.33;104947;1271;76398;-25
2022/04/06 07:00:33;;;;;;;3.70;2.40;;;;;;;7.68;65.72;97793.48;104927;1271;75888;-24
2022/04/06 07:03:03;;;;;;;3.30;2.60;;;;;;;7.85;64.82;97796.32;105055;1271;74366;-26
2022/04/06 07:05:31;;;;;;;3.40;2.60;;;;;;;7.89;63.94;97799.72;104779;1274;61128;-26
2022/04/06 07:08:01;;;;;;;3.20;2.10;;;;;;;7.85;63.89;97794.95;105119;1270;61858;-26
2022/04/06 07:10:49;;;;;;;3.90;2.30;;;;;;;7.89;64.37;97809.42;105002;1271;75687;-26
2022/04/06 07:13:18;;;;;;;2.80;2.10;;;;;;;7.95;64.16;97808.77;104730;1271;75923;-25
2022/04/06 07:15:46;;;;;;;1.90;1.70;;;;;;;7.97;63.92;97807.17;104752;1274;74550;-25
2022/04/06 07:18:17;;;;;;;2.50;2.00;;;;;;;7.91;63.83;97813.77;104874;1271;61146;-25
2022/04/06 07:20:45;;;;;;;2.60;2.20;;;;;;;7.86;63.93;97811.60;104946;1271;61094;-26
2022/04/06 07:23:14;;;;;;;4.30;2.40;;;;;;;7.85;64.20;97814.27;104873;1271;75631;-25
2022/04/06 07:25:41;;;;;;;3.20;2.30;;;;;;;7.80;64.59;97822.81;104946;1271;75906;-25
2022/04/06 07:28:09;;;;;;;3.30;1.80;;;;;;;7.83;65.19;97828.29;104911;1271;74390;-25
2022/04/06 07:30:37;;;;;;;2.50;1.90;;;;;;;7.98;64.46;97828.15;104905;1271;63648;-25
2022/04/06 07:33:06;;;;;;;2.80;2.00;;;;;;;8.56;63.11;97824.84;104918;1271;61144;-25
2022/04/06 07:35:35;;;;;;;2.70;1.90;;;;;;;8.80;62.36;97835.32;104717;1274;75588;-25
2022/04/06 07:38:03;;;;;;;3.80;1.90;;;;;;;8.87;62.22;97845.16;104918;1271;76057;-25
2022/04/06 07:40:32;;;;;;;3.40;2.20;;;;;;;8.91;61.93;97836.32;104754;1274;74399;-26
2022/04/06 07:43:00;;;;;;;3.90;2.30;;;;;;;8.87;62.02;97836.14;104758;1271;61870;-26
2022/04/06 07:45:34;;;;;;;3.00;2.30;;;;;;;8.79;62.71;97840.56;104583;1274;61089;-26
2022/04/06 07:48:04;;;;;;;2.10;1.90;;;;;;;8.75;62.57;97829.87;104787;1274;75807;-26
2022/04/06 07:50:31;;;;;;;2.80;2.30;;;;;;;8.69;62.23;97837.16;105013;1271;76132;-25
2022/04/06 07:52:59;;;;;;;2.20;1.70;;;;;;;8.59;62.17;97841.38;104812;1271;74378;-27
2022/04/06 07:55:29;;;;;;;2.50;2.00;;;;;;;8.63;62.23;97837.31;104926;1271;61799;-26
2022/04/06 07:57:57;;;;;;;3.70;2.70;;;;;;;8.63;62.55;97841.33;104824;1271;61024;-26
2022/04/06 08:00:32;;;;;;;3.00;2.20;;;;;;;8.67;62.80;97848.23;104790;1274;75372;-26
2022/04/06 08:03:01;;;;;;;3.70;2.20;;;;;;;8.77;62.88;97849.86;105064;1272;74884;-27
2022/04/06 08:05:30;;;;;;;3.50;2.60;;;;;;;8.82;62.94;97852.70;104822;1271;74307;-27
2022/04/06 08:07:58;;;;;;;2.70;1.90;;;;;;;8.83;62.63;97855.91;104984;1271;62118;-26
2022/04/06 08:10:30;;;;;;;2.90;2.20;;;;;;;8.88;63.43;97867.61;104944;1271;61227;-25
2022/04/06 08:12:58;;;;;;;2.90;2.40;;;;;;;8.96;62.35;97863.55;104782;1271;75616;-25
2022/04/06 08:15:32;;;;;;;2.90;2.40;;;;;;;8.91;62.37;97857.09;104639;1274;76070;-26
2022/04/06 08:18:01;;;;;;;3.90;2.30;;;;;;;8.86;62.61;97865.52;105027;1271;74620;-27
2022/04/06 08:20:37;;;;;;;4.10;2.40;;;;;;;8.89;62.68;97880.68;105099;1271;61971;-25
2022/04/06 08:23:05;;;;;;;2.60;2.00;;;;;;;9.00;62.69;97878.23;105097;1271;61124;-28
2022/04/06 08:25:35;;;;;;;3.20;2.20;;;;;;;9.14;62.28;97873.03;104869;1271;75455;-25
2022/04/06 08:28:07;;;;;;;2.30;2.00;;;;;;;9.28;61.43;97875.58;105011;1271;76054;-26
2022/04/06 08:30:40;;;;;;;3.90;2.90;;;;;;;9.35;61.59;97877.05;104851;1271;73363;-25
2022/04/06 08:33:10;;;;;;;3.00;2.50;;;;;;;9.36;61.58;97859.98;104921;1271;61127;-27
2022/04/06 08:35:38;;;;;;;3.40;2.40;;;;;;;9.62;61.74;97875.53;105091;1271;61103;-27
2022/04/06 08:38:07;;;;;;;3.10;2.70;;;;;;;9.76;60.54;97892.89;104751;1271;75534;-26
2022/04/06 08:40:35;;;;;;;3.00;2.60;;;;;;;9.64;61.18;97878.98;104897;1271;75805;-26
2022/04/06 08:43:05;;;;;;;3.20;2.40;;;;;;;9.43;61.60;97869.57;104699;1271;74460;-26
2022/04/06 08:45:38;;;;;;;3.20;2.50;;;;;;;9.39;62.17;97879.66;104637;1271;61977;-26
2022/04/06 08:48:07;;;;;;;3.80;2.20;;;;;;;9.29;61.96;97883.00;104876;1274;61103;-27
2022/04/06 08:50:36;;;;;;;3.40;2.50;;;;;;;9.14;62.42;97880.23;104736;1274;76160;-26
2022/04/06 08:53:05;;;;;;;2.70;2.30;;;;;;;9.09;62.65;97891.41;104712;1271;74866;-26
2022/04/06 08:55:33;;;;;;;3.70;2.80;;;;;;;9.04;62.39;97890.98;105078;1271;74344;-26
2022/04/06 08:58:03;;;;;;;3.90;3.00;;;;;;;9.06;62.59;97897.55;105163;1271;61126;-26
2022/04/06 09:00:34;;;;;;;3.70;2.70;;;;;;;9.00;63.32;97896.93;104901;1271;61415;-26
2022/04/06 09:03:02;;;;;;;3.10;2.10;;;;;;;8.99;63.22;97886.46;105090;1272;75691;-26
2022/04/06 09:05:32;;;;;;;3.30;2.70;;;;;;;9.02;63.39;97894.91;104994;1271;73907;-26
2022/04/06 09:08:02;;;;;;;2.80;2.50;;;;;;;9.12;63.87;97895.64;105074;1271;74481;-26
2022/04/06 09:10:49;;;;;;;3.20;2.30;;;;;;;9.26;63.50;97900.41;104883;1271;63161;-26
2022/04/06 09:13:31;;;;;;;3.60;3.00;;;;;;;9.32;63.25;97899.65;104916;1271;61042;-25
2022/04/06 09:16:19;;;;;;;3.60;2.80;;;;;;;9.42;63.44;97905.88;105078;1271;76662;-25
2022/04/06 09:18:48;;;;;;;5.60;2.80;;;;;;;9.49;62.63;97902.58;105019;1274;75887;-25
2022/04/06 09:21:18;;;;;;;4.30;3.10;;;;;;;9.50;63.11;97908.52;104988;1271;74258;-25
2022/04/06 09:23:48;;;;;;;3.70;2.60;;;;;;;9.45;62.98;97906.27;105070;1271;62760;-25
2022/04/06 09:26:21;;;;;;;3.20;2.70;;;;;;;9.45;63.14;97914.73;104945;1271;61726;-26
2022/04/06 09:28:49;;;;;;;4.50;2.20;;;;;;;9.44;62.64;97905.15;104651;1271;75771;-25
2022/04/06 09:31:18;;;;;;;4.00;2.60;;;;;;;9.37;62.72;97908.73;104703;1271;76154;-26
2022/04/06 09:33:59;;;;;;;3.30;2.80;;;;;;;9.30;63.61;97914.54;104719;1271;74428;-25
2022/04/06 09:36:28;;;;;;;5.00;3.20;;;;;;;9.24;63.69;97908.02;104925;1271;61239;-25
2022/04/06 09:38:57;;;;;;;2.50;2.10;;;;;;;9.24;63.52;97913.25;104649;1274;61947;-25
2022/04/06 09:41:26;;;;;;;3.30;2.30;;;;;;;9.28;63.29;97918.80;104880;1271;75478;-25
2022/04/06 09:43:54;;;;;;;4.20;2.30;;;;;;;9.29;64.01;97922.27;104803;1274;76056;-25
2022/04/06 09:49:13;;;;;;;2.90;2.40;;;;;;;9.35;63.62;97917.01;104831;1274;62208;-25
2022/04/06 09:51:50;;;;;;;4.20;2.70;;;;;;;9.38;63.57;97925.80;105127;1271;61395;-25
2022/04/06 09:54:18;;;;;;;3.20;2.60;;;;;;;9.38;63.66;97926.45;104795;1271;75441;-26
2022/04/06 09:56:46;;;;;;;3.10;2.60;;;;;;;9.35;63.82;97925.67;104747;1271;76029;-25
2022/04/06 09:59:15;;;;;;;3.30;2.30;;;;;;;9.35;63.93;97928.48;104596;1274;74263;-25
2022/04/06 10:01:52;;;;;;;3.20;2.60;;;;;;;9.38;63.73;97925.25;105014;1271;61150;-26
2022/04/06 10:04:25;;;;;;;2.70;2.00;;;;;;;9.37;64.15;97925.60;104784;1274;61137;-26
2022/04/06 10:06:55;;;;;;;2.60;2.00;;;;;;;9.79;63.04;97926.59;104878;1274;74478;-26
2022/04/06 10:09:23;;;;;;;3.20;2.40;;;;;;;10.30;62.02;97933.86;104754;1274;75134;-26
2022/04/06 10:11:51;;;;;;;3.20;2.60;;;;;;;10.44;60.97;97931.81;104852;1274;73023;-26
2022/04/06 10:14:19;;;;;;;2.50;2.30;;;;;;;10.39;60.84;97935.44;104972;1272;61115;-26
2022/04/06 10:16:48;;;;;;;3.30;2.10;;;;;;;10.33;60.94;97941.86;104962;1274;61031;-26
2022/04/06 10:19:16;;;;;;;2.90;2.30;;;;;;;10.30;61.53;97941.80;104669;1272;76100;-26
2022/04/06 10:22:09;;;;;;;2.50;2.20;;;;;;;10.18;61.42;97934.41;104632;1274;77083;-26
2022/04/06 10:25:08;;;;;;;4.60;2.70;;;;;;;10.06;61.63;97939.94;104643;1274;74470;-26
2022/04/06 10:27:42;;;;;;;2.70;2.40;;;;;;;10.05;61.62;97933.34;105034;1274;61051;-25
2022/04/06 10:30:13;;;;;;;2.50;2.00;;;;;;;9.95;62.02;97938.27;104655;1274;62158;-26
2022/04/06 10:32:50;;;;;;;3.50;2.20;;;;;;;9.90;62.14;97941.89;104744;1271;77441;-25
2022/04/06 10:35:18;;;;;;;4.70;1.90;;;;;;;9.89;62.20;97945.41;104674;1271;76030;-25
2022/04/06 10:37:56;;;;;;;3.90;2.70;;;;;;;9.83;62.53;97950.20;104859;1274;73209;-26
2022/04/06 10:40:25;;;;;;;3.60;2.70;;;;;;;9.77;63.04;97954.35;104839;1274;61284;-26
2022/04/06 10:42:53;;;;;;;2.70;2.10;;;;;;;9.79;63.30;97955.92;104940;1271;61179;-25
2022/04/06 10:45:29;;;;;;;2.80;2.30;;;;;;;9.78;63.26;97955.11;105118;1274;76080;-25
2022/04/06 10:48:20;;;;;;;2.70;1.60;;;;;;;9.78;63.38;97960.86;105089;1274;74804;-25
2022/04/06 10:50:49;;;;;;;2.90;2.10;;;;;;;9.76;63.65;97961.17;104736;1271;71846;-26
2022/04/06 10:53:23;;;;;;;2.70;2.10;;;;;;;9.77;63.26;97955.86;104907;1271;61870;-25
2022/04/06 10:55:59;;;;;;;2.40;2.10;;;;;;;9.76;63.75;97960.30;105026;1271;62228;-26
2022/04/06 10:58:27;;;;;;;2.70;2.30;;;;;;;9.78;63.43;97956.05;104745;1274;77270;-27
2022/04/06 11:01:15;;;;;;;3.00;2.20;;;;;;;9.91;63.65;97956.48;104983;1274;75816;-25
2022/04/06 11:04:01;;;;;;;5.10;1.80;;;;;;;10.01;63.15;97960.23;105024;1272;74445;-25
2022/04/06 11:06:43;;;;;;;2.10;1.90;;;;;;;10.10;62.61;97960.59;104921;1274;61161;-25
2022/04/06 11:12:25;;;;;;;3.80;2.70;;;;;;;10.23;61.67;97951.31;104840;1274;75508;-27
2022/04/06 11:15:03;;;;;;;2.50;2.10;;;;;;;10.34;61.43;97944.40;104720;1271;75028;-27
2022/04/06 11:17:44;;;;;;;2.60;2.00;;;;;;;10.35;61.28;97949.96;104679;1274;74463;-26
2022/04/06 11:20:33;;;;;;;4.10;2.20;;;;;;;10.48;61.01;97963.02;104725;1274;61686;-28
2022/04/06 11:23:02;;;;;;;2.70;2.20;;;;;;;10.59;60.53;97956.52;105143;1272;61044;-25
2022/04/06 11:25:30;;;;;;;2.60;2.30;;;;;;;10.60;59.65;97950.37;104903;1274;75515;-26
2022/04/06 11:28:06;;;;;;;3.20;2.70;;;;;;;10.54;59.90;97949.76;104881;1274;75030;-26
2022/04/06 11:30:34;;;;;;;3.50;2.60;;;;;;;10.61;60.05;97957.22;104618;1274;74333;-26
2022/04/06 11:33:04;;;;;;;2.40;2.10;;;;;;;10.69;59.89;97968.23;104970;1271;61981;-25
2022/04/06 11:35:34;;;;;;;2.90;2.60;;;;;;;10.94;59.64;97961.82;104722;1274;61048;-27
2022/04/06 11:38:06;;;;;;;3.00;2.40;;;;;;;11.21;59.28;97954.10;104966;1271;73106;-26
2022/04/06 11:40:39;;;;;;;;;;;;;;;11.30;58.35;97942.38;104838;1271;75001;-26
2022/04/06 11:43:07;;;;;;;2.50;2.30;;;;;;;11.24;59.11;97942.77;104807;1271;74286;-26
2022/04/06 11:45:41;;;;;;;2.60;1.80;;;;;;;11.22;58.47;97952.55;104877;1271;61097;-27
2022/04/06 11:48:12;;;;;;;2.80;2.50;;;;;;;11.16;58.44;97961.82;104780;1274;62213;-27
2022/04/06 11:50:43;;;;;;;2.30;1.80;;;;;;;10.99;59.15;97967.38;104988;1271;75686;-27
2022/04/06 11:53:21;;;;;;;3.50;2.30;;;;;;;10.90;59.38;97967.81;104682;1271;75105;-28
2022/04/06 11:55:54;;;;;;;2.70;2.30;;;;;;;10.78;59.68;97972.70;104997;1271;74403;-26
2022/04/06 11:58:38;;;;;;;2.70;2.20;;;;;;;10.73;59.58;97969.77;104906;1274;61009;-26
2022/04/06 12:01:17;;;;;;;3.10;2.50;;;;;;;10.65;59.61;97963.38;104649;1274;61188;-26
2022/04/06 12:03:46;;;;;;;2.40;2.10;;;;;;;10.67;59.53;97964.23;104760;1274;75475;-25
2022/04/06 12:06:15;;;;;;;3.00;2.30;;;;;;;10.72;59.11;97962.78;104876;1272;76450;-26
2022/04/06 12:08:47;;;;;;;3.00;2.40;;;;;;;10.78;59.35;97964.40;104648;1274;74194;-26